Flight Track Log - Related Links

Times and Time Zones

All times are in EDT time to prevent confusion due to time zone crossing. See the SWA407 flight status page for this flight to view local times or setup timezone preferences in your user account.

Time Position Orientation Groundspeed Altitude Reporting Facility
EDT Latitude Longitude Course Direction KTS MPH feet Rate Location/Type
Thu 06:24:09 PM 39.1406 -76.5792 90° East 184 212 2,900  Level Washington Center
Thu 06:25:09 PM 39.1414 -76.4775 89° East 229 264 5,500 3,000 Climbing Washington Center
Thu 06:26:07 PM 39.1464 -76.3731 86° East 258 297 8,800 3,076 Climbing Washington Center
Thu 06:27:08 PM 39.1492 -76.2608 88° East 292 336 11,600 3,049 Climbing Washington Center
Thu 06:28:09 PM 39.1644 -76.1322 81° East 332 382 15,000 2,754 Climbing Washington Center
Thu 06:29:00 PM 39.1667 -76.6357 90° East  Level FlightAware Approximate
Thu 06:29:10 PM 39.1794 -75.9958 82° East 363 418 17,200  Level Washington Center
Thu 06:30:07 PM 39.2089 -75.8647 74° East 373 429 19,600 2,492 Climbing Washington Center
Thu 06:31:08 PM 39.2883 -75.7578 46° Northeast 382 440 22,100 2,361 Climbing Washington Center
Thu 06:32:09 PM 39.3719 -75.6506 45° Northeast 401 461 24,400 2,067 Climbing Washington Center
Thu 06:33:07 PM 39.4614 -75.5350 45° Northeast 421 484 26,200 1,831 Climbing Washington Center
Thu 06:34:07 PM 39.5508 -75.4192 45° Northeast 438 504 28,000 2,250 Climbing Washington Center
Thu 06:35:07 PM 39.6422 -75.2950 46° Northeast 452 520 30,700 2,215 Climbing Washington Center
Thu 06:36:17 PM 39.7333 -75.1736 46° Northeast 444 511 32,800 1,008 Climbing New York Center
Thu 06:37:18 PM 39.8172 -75.0439 50° Northeast 449 517 32,900 51 Climbing New York Center
Thu 06:38:15 PM 39.9050 -74.9219 47° Northeast 456 525 32,900 51 Level New York Center
Thu 06:39:15 PM 39.9994 -74.7867 48° Northeast 461 531 33,000 50 Climbing New York Center
Thu 06:40:16 PM 40.0808 -74.6583 50° Northeast 456 525 33,000 -35 Level New York Center
Thu 06:42:08 PM 40.1828 -74.3928 63° Northeast 450 518 32,900 -35 Descending Boston Center
Thu 06:43:08 PM 40.2375 -74.2422 64° Northeast 450 518 32,900  Level Boston Center
Thu 06:44:08 PM 40.2939 -74.0914 64° Northeast 455 524 32,900 -50 Level Boston Center
Thu 06:45:08 PM 40.3708 -73.9464 55° Northeast 448 516 32,800 -1,200 Descending Boston Center
Thu 06:46:08 PM 40.4414 -73.8089 56° Northeast 448 516 30,500 -2,100 Descending Boston Center
Thu 06:47:08 PM 40.4994 -73.6708 61° Northeast 441 507 28,600 -1,700 Descending Boston Center
Thu 06:48:08 PM 40.5317 -73.5594 69° East 446 513 27,100 -800 Descending Boston Center
Thu 06:49:08 PM 40.5856 -73.3883 67° East 433 498 27,000 -250 Descending Boston Center
Thu 06:50:08 PM 40.6303 -73.2442 68° East 427 491 26,600 -700 Descending Boston Center
Thu 06:51:08 PM 40.6750 -73.1022 67° East 422 486 25,600 -1,000 Descending Boston Center
Thu 06:52:08 PM 40.7153 -72.9603 69° East 422 486 24,600 -950 Descending Boston Center
Thu 06:53:08 PM 40.7639 -72.8236 65° Northeast 410 472 23,700 -1,250 Descending Boston Center
Thu 06:54:08 PM 40.8058 -72.6842 68° East 410 472 22,100 -1,650 Descending Boston Center
Thu 06:55:08 PM 40.8478 -72.5525 67° East 398 458 20,400 -2,050 Descending Boston Center
Thu 06:56:08 PM 40.8875 -72.4153 69° East 391 450 18,000 -1,750 Descending Boston Center
Thu 06:57:08 PM 40.9269 -72.2861 68° East 386 444 16,900 -1,667 Descending Boston Center
Thu 06:58:14 PM 40.9786 -72.1431 64° Northeast 379 436 14,500 -2,079 Descending Boston Center
Thu 06:59:15 PM 41.0219 -72.0219 65° Northeast 360 414 12,500 -1,785 Descending Boston Center
Thu 07:00:15 PM 41.0633 -71.9061 65° Northeast 351 404 10,900 -1,252 Descending Boston Center
Thu 07:01:10 PM 41.1192 -71.8256 47° Northeast 325 374 10,100 -991 Descending Boston Center
Thu 07:02:10 PM 41.1708 -71.7342 53° Northeast 313 360 9,000 -992 Descending Boston Center
Thu 07:03:11 PM 41.2283 -71.6425 50° Northeast 306 352 8,100 -934 Descending Boston Center
Thu 07:04:12 PM 41.2819 -71.5533 51° Northeast 304 350 7,100 -992 Descending Boston Center
Thu 07:05:12 PM 41.3375 -71.4697 48° Northeast 305 351 6,100 -992 Descending Boston Center
Thu 07:06:13 PM 41.3931 -71.3942 46° Northeast 293 337 5,100 -541 Descending Boston Center
Thu 07:07:14 PM 41.4681 -71.3847 North 275 316 5,000 -50 Descending Boston Center
Thu 07:08:14 PM 41.5450 -71.3750 North 277 319 5,000  Level Boston Center
Thu 07:09:15 PM 41.6178 -71.3600 North 241 277 5,000 -197 Level Boston Center
Thu 07:10:16 PM 41.6736 -71.3089 34° Northeast 247 284 4,600 -793 Descending Boston Center
Thu 07:11:16 PM 41.7272 -71.2606 34° Northeast 231 266 3,400 -1,409 Descending Boston Center
Thu 07:12:11 PM 41.7672 -71.2794 341° North 191 220 1,900 -887 Descending Boston Center
Thu 07:13:11 PM 41.7864 -71.3375 294° West 172 198 1,700 -200 Descending Boston Center

Login

Don't have an account? Register now (free) for customized features, flight alerts, and more!